sensor_id;sensor_type;location;lat;lon;timestamp;temperature;humidity
19803;DHT22;66074;50.764;6.090;2024-03-22T00:01:46;13.10;95.10
19803;DHT22;66074;50.764;6.090;2024-03-22T00:04:12;13.10;95.10
19803;DHT22;66074;50.764;6.090;2024-03-22T00:06:39;13.10;95.20
19803;DHT22;66074;50.764;6.090;2024-03-22T00:09:04;13.10;95.10
19803;DHT22;66074;50.764;6.090;2024-03-22T00:11:30;13.10;95.20
19803;DHT22;66074;50.764;6.090;2024-03-22T00:13:56;13.10;95.20
19803;DHT22;66074;50.764;6.090;2024-03-22T00:16:22;13.10;95.30
19803;DHT22;66074;50.764;6.090;2024-03-22T00:18:48;13.10;95.20
19803;DHT22;66074;50.764;6.090;2024-03-22T00:21:13;13.10;95.20
19803;DHT22;66074;50.764;6.090;2024-03-22T00:23:39;13.10;95.20
19803;DHT22;66074;50.764;6.090;2024-03-22T00:26:04;13.10;95.20
19803;DHT22;66074;50.764;6.090;2024-03-22T00:28:30;13.10;95.40
19803;DHT22;66074;50.764;6.090;2024-03-22T00:30:56;13.10;95.30
19803;DHT22;66074;50.764;6.090;2024-03-22T00:33:21;13.10;95.30
19803;DHT22;66074;50.764;6.090;2024-03-22T00:35:47;13.10;95.40
19803;DHT22;66074;50.764;6.090;2024-03-22T00:38:13;13.10;95.40
19803;DHT22;66074;50.764;6.090;2024-03-22T00:40:38;13.10;95.30
19803;DHT22;66074;50.764;6.090;2024-03-22T00:43:04;13.10;95.40
19803;DHT22;66074;50.764;6.090;2024-03-22T00:45:29;13.10;95.40
19803;DHT22;66074;50.764;6.090;2024-03-22T00:47:55;13.10;95.40
19803;DHT22;66074;50.764;6.090;2024-03-22T00:50:21;13.10;95.60
19803;DHT22;66074;50.764;6.090;2024-03-22T00:52:46;13.00;95.50
19803;DHT22;66074;50.764;6.090;2024-03-22T00:55:12;13.00;95.60
19803;DHT22;66074;50.764;6.090;2024-03-22T00:57:37;13.00;95.50
19803;DHT22;66074;50.764;6.090;2024-03-22T01:00:03;13.00;95.50
19803;DHT22;66074;50.764;6.090;2024-03-22T01:02:30;13.00;95.50
19803;DHT22;66074;50.764;6.090;2024-03-22T01:04:55;13.00;95.50
19803;DHT22;66074;50.764;6.090;2024-03-22T01:07:21;13.10;95.60
19803;DHT22;66074;50.764;6.090;2024-03-22T01:09:46;13.10;95.70
19803;DHT22;66074;50.764;6.090;2024-03-22T01:12:12;13.10;95.60
19803;DHT22;66074;50.764;6.090;2024-03-22T01:14:38;13.10;95.70
19803;DHT22;66074;50.764;6.090;2024-03-22T01:17:03;13.10;95.60
19803;DHT22;66074;50.764;6.090;2024-03-22T01:19:29;13.10;95.60
19803;DHT22;66074;50.764;6.090;2024-03-22T01:21:54;13.10;95.60
19803;DHT22;66074;50.764;6.090;2024-03-22T01:24:20;13.10;95.60
19803;DHT22;66074;50.764;6.090;2024-03-22T01:26:46;13.20;95.50
19803;DHT22;66074;50.764;6.090;2024-03-22T01:29:13;13.20;95.50
19803;DHT22;66074;50.764;6.090;2024-03-22T01:31:39;13.20;95.60
19803;DHT22;66074;50.764;6.090;2024-03-22T01:34:04;13.20;95.50
19803;DHT22;66074;50.764;6.090;2024-03-22T01:36:30;13.20;95.60
19803;DHT22;66074;50.764;6.090;2024-03-22T01:38:57;13.20;95.60
19803;DHT22;66074;50.764;6.090;2024-03-22T01:41:22;13.20;95.70
19803;DHT22;66074;50.764;6.090;2024-03-22T01:43:48;13.20;95.90
19803;DHT22;66074;50.764;6.090;2024-03-22T01:46:14;13.20;95.60
19803;DHT22;66074;50.764;6.090;2024-03-22T01:48:40;13.20;95.60
19803;DHT22;66074;50.764;6.090;2024-03-22T01:51:06;13.30;95.60
19803;DHT22;66074;50.764;6.090;2024-03-22T01:53:32;13.30;95.70
19803;DHT22;66074;50.764;6.090;2024-03-22T01:56:00;13.20;95.60
19803;DHT22;66074;50.764;6.090;2024-03-22T01:58:26;13.20;95.50
19803;DHT22;66074;50.764;6.090;2024-03-22T02:00:51;13.20;95.60
19803;DHT22;66074;50.764;6.090;2024-03-22T02:03:17;13.20;95.60
19803;DHT22;66074;50.764;6.090;2024-03-22T02:05:42;13.20;95.60
19803;DHT22;66074;50.764;6.090;2024-03-22T02:08:08;13.30;95.70
19803;DHT22;66074;50.764;6.090;2024-03-22T02:10:34;13.20;95.60
19803;DHT22;66074;50.764;6.090;2024-03-22T02:12:59;13.30;95.70
19803;DHT22;66074;50.764;6.090;2024-03-22T02:15:25;13.20;95.70
19803;DHT22;66074;50.764;6.090;2024-03-22T02:17:50;13.20;95.70
19803;DHT22;66074;50.764;6.090;2024-03-22T02:20:16;13.20;95.70
19803;DHT22;66074;50.764;6.090;2024-03-22T02:22:42;13.20;95.70
19803;DHT22;66074;50.764;6.090;2024-03-22T02:25:07;13.20;95.60
19803;DHT22;66074;50.764;6.090;2024-03-22T02:27:34;13.20;95.70
19803;DHT22;66074;50.764;6.090;2024-03-22T02:30:00;13.20;95.60
19803;DHT22;66074;50.764;6.090;2024-03-22T02:32:25;13.20;95.60
19803;DHT22;66074;50.764;6.090;2024-03-22T02:34:51;13.20;95.70
19803;DHT22;66074;50.764;6.090;2024-03-22T02:37:19;13.20;95.70
19803;DHT22;66074;50.764;6.090;2024-03-22T02:39:45;13.20;95.70
19803;DHT22;66074;50.764;6.090;2024-03-22T02:42:11;13.20;95.70
19803;DHT22;66074;50.764;6.090;2024-03-22T02:44:36;13.30;95.70
19803;DHT22;66074;50.764;6.090;2024-03-22T02:47:10;13.30;95.70
19803;DHT22;66074;50.764;6.090;2024-03-22T02:49:38;13.20;95.70
19803;DHT22;66074;50.764;6.090;2024-03-22T02:52:04;13.20;95.70
19803;DHT22;66074;50.764;6.090;2024-03-22T02:54:29;13.30;95.70
19803;DHT22;66074;50.764;6.090;2024-03-22T02:56:55;13.30;95.70
19803;DHT22;66074;50.764;6.090;2024-03-22T02:59:21;13.30;95.70
19803;DHT22;66074;50.764;6.090;2024-03-22T03:01:47;13.30;95.70
19803;DHT22;66074;50.764;6.090;2024-03-22T03:04:12;13.30;95.70
19803;DHT22;66074;50.764;6.090;2024-03-22T03:06:38;13.30;95.70
19803;DHT22;66074;50.764;6.090;2024-03-22T03:09:03;13.30;95.70
19803;DHT22;66074;50.764;6.090;2024-03-22T03:11:39;13.30;95.90
19803;DHT22;66074;50.764;6.090;2024-03-22T03:14:05;13.30;95.70
19803;DHT22;66074;50.764;6.090;2024-03-22T03:16:31;13.30;95.70
19803;DHT22;66074;50.764;6.090;2024-03-22T03:18:56;13.30;95.70
19803;DHT22;66074;50.764;6.090;2024-03-22T03:21:22;13.30;95.70
19803;DHT22;66074;50.764;6.090;2024-03-22T03:23:48;13.30;95.60
19803;DHT22;66074;50.764;6.090;2024-03-22T03:26:13;13.30;95.60
19803;DHT22;66074;50.764;6.090;2024-03-22T03:28:39;13.40;95.70
19803;DHT22;66074;50.764;6.090;2024-03-22T03:31:04;13.40;95.70
19803;DHT22;66074;50.764;6.090;2024-03-22T03:33:30;13.40;95.60
19803;DHT22;66074;50.764;6.090;2024-03-22T03:35:56;13.30;95.90
19803;DHT22;66074;50.764;6.090;2024-03-22T03:38:22;13.40;95.60
19803;DHT22;66074;50.764;6.090;2024-03-22T03:40:48;13.30;95.60
19803;DHT22;66074;50.764;6.090;2024-03-22T03:43:13;13.40;95.70
19803;DHT22;66074;50.764;6.090;2024-03-22T03:45:39;13.30;95.70
19803;DHT22;66074;50.764;6.090;2024-03-22T03:48:04;13.30;95.60
19803;DHT22;66074;50.764;6.090;2024-03-22T03:50:30;13.30;95.60
19803;DHT22;66074;50.764;6.090;2024-03-22T03:52:56;13.30;95.70
19803;DHT22;66074;50.764;6.090;2024-03-22T03:55:22;13.30;95.60
19803;DHT22;66074;50.764;6.090;2024-03-22T03:57:50;13.30;95.60
19803;DHT22;66074;50.764;6.090;2024-03-22T04:00:17;13.30;95.60
19803;DHT22;66074;50.764;6.090;2024-03-22T04:02:43;13.30;95.70
19803;DHT22;66074;50.764;6.090;2024-03-22T04:05:08;13.30;95.70
19803;DHT22;66074;50.764;6.090;2024-03-22T04:07:34;13.30;95.70
19803;DHT22;66074;50.764;6.090;2024-03-22T04:09:59;13.30;95.70
19803;DHT22;66074;50.764;6.090;2024-03-22T04:12:26;13.10;95.70
19803;DHT22;66074;50.764;6.090;2024-03-22T04:14:52;13.20;95.80
19803;DHT22;66074;50.764;6.090;2024-03-22T04:17:18;13.20;95.80
19803;DHT22;66074;50.764;6.090;2024-03-22T04:19:43;13.20;95.80
19803;DHT22;66074;50.764;6.090;2024-03-22T04:22:09;13.20;95.80
19803;DHT22;66074;50.764;6.090;2024-03-22T04:24:35;13.20;95.90
19803;DHT22;66074;50.764;6.090;2024-03-22T04:27:00;13.10;95.80
19803;DHT22;66074;50.764;6.090;2024-03-22T04:29:26;13.20;95.90
19803;DHT22;66074;50.764;6.090;2024-03-22T04:31:52;13.20;96.00
19803;DHT22;66074;50.764;6.090;2024-03-22T04:34:17;13.20;95.90
19803;DHT22;66074;50.764;6.090;2024-03-22T04:36:43;13.20;95.90
19803;DHT22;66074;50.764;6.090;2024-03-22T04:39:09;13.20;96.00
19803;DHT22;66074;50.764;6.090;2024-03-22T04:41:35;13.10;95.90
19803;DHT22;66074;50.764;6.090;2024-03-22T04:44:01;13.10;96.00
19803;DHT22;66074;50.764;6.090;2024-03-22T04:46:26;13.10;95.90
19803;DHT22;66074;50.764;6.090;2024-03-22T04:48:52;13.20;96.00
19803;DHT22;66074;50.764;6.090;2024-03-22T04:51:17;13.10;95.90
19803;DHT22;66074;50.764;6.090;2024-03-22T04:53:43;13.10;95.90
19803;DHT22;66074;50.764;6.090;2024-03-22T04:56:09;13.10;96.00
19803;DHT22;66074;50.764;6.090;2024-03-22T04:58:35;13.10;95.90
19803;DHT22;66074;50.764;6.090;2024-03-22T05:01:01;13.10;96.00
19803;DHT22;66074;50.764;6.090;2024-03-22T05:03:26;13.20;96.10
19803;DHT22;66074;50.764;6.090;2024-03-22T05:05:52;13.10;96.00
19803;DHT22;66074;50.764;6.090;2024-03-22T05:08:17;13.20;96.00
19803;DHT22;66074;50.764;6.090;2024-03-22T05:10:43;13.20;96.10
19803;DHT22;66074;50.764;6.090;2024-03-22T05:13:09;13.10;96.00
19803;DHT22;66074;50.764;6.090;2024-03-22T05:15:34;13.10;96.00
19803;DHT22;66074;50.764;6.090;2024-03-22T05:18:00;13.20;96.10
19803;DHT22;66074;50.764;6.090;2024-03-22T05:20:26;13.10;96.00
19803;DHT22;66074;50.764;6.090;2024-03-22T05:22:52;13.10;96.10
19803;DHT22;66074;50.764;6.090;2024-03-22T05:25:17;13.20;96.20
19803;DHT22;66074;50.764;6.090;2024-03-22T05:27:44;13.00;96.10
19803;DHT22;66074;50.764;6.090;2024-03-22T05:30:10;13.10;96.20
19803;DHT22;66074;50.764;6.090;2024-03-22T05:32:36;13.10;96.10
19803;DHT22;66074;50.764;6.090;2024-03-22T05:35:02;13.20;96.10
19803;DHT22;66074;50.764;6.090;2024-03-22T05:37:28;13.20;96.20
19803;DHT22;66074;50.764;6.090;2024-03-22T05:39:54;13.20;96.20
19803;DHT22;66074;50.764;6.090;2024-03-22T05:42:20;13.20;96.20
19803;DHT22;66074;50.764;6.090;2024-03-22T05:44:46;13.20;96.20
19803;DHT22;66074;50.764;6.090;2024-03-22T05:47:11;13.20;96.30
19803;DHT22;66074;50.764;6.090;2024-03-22T05:49:37;13.20;96.20
19803;DHT22;66074;50.764;6.090;2024-03-22T05:52:03;13.20;96.30
19803;DHT22;66074;50.764;6.090;2024-03-22T05:54:28;13.30;96.20
19803;DHT22;66074;50.764;6.090;2024-03-22T05:56:54;13.30;96.20
19803;DHT22;66074;50.764;6.090;2024-03-22T05:59:20;13.20;96.10
19803;DHT22;66074;50.764;6.090;2024-03-22T06:01:46;13.20;96.20
19803;DHT22;66074;50.764;6.090;2024-03-22T06:04:11;13.30;96.20
19803;DHT22;66074;50.764;6.090;2024-03-22T06:06:37;13.30;96.10
19803;DHT22;66074;50.764;6.090;2024-03-22T06:09:03;13.20;96.10
19803;DHT22;66074;50.764;6.090;2024-03-22T06:11:30;13.30;96.10
19803;DHT22;66074;50.764;6.090;2024-03-22T06:13:56;13.30;96.00
19803;DHT22;66074;50.764;6.090;2024-03-22T06:16:21;13.30;96.00
19803;DHT22;66074;50.764;6.090;2024-03-22T06:18:47;13.50;96.00
19803;DHT22;66074;50.764;6.090;2024-03-22T06:21:13;13.30;95.90
19803;DHT22;66074;50.764;6.090;2024-03-22T06:23:40;13.30;95.80
19803;DHT22;66074;50.764;6.090;2024-03-22T06:26:06;13.30;95.70
19803;DHT22;66074;50.764;6.090;2024-03-22T06:28:32;13.30;95.60
19803;DHT22;66074;50.764;6.090;2024-03-22T06:30:58;13.40;95.60
19803;DHT22;66074;50.764;6.090;2024-03-22T06:33:23;13.40;95.50
19803;DHT22;66074;50.764;6.090;2024-03-22T06:35:49;13.40;95.60
19803;DHT22;66074;50.764;6.090;2024-03-22T06:38:15;13.40;95.30
19803;DHT22;66074;50.764;6.090;2024-03-22T06:40:40;13.50;95.40
19803;DHT22;66074;50.764;6.090;2024-03-22T06:43:06;13.50;95.40
19803;DHT22;66074;50.764;6.090;2024-03-22T06:45:32;13.50;95.40
19803;DHT22;66074;50.764;6.090;2024-03-22T06:47:57;13.50;95.40
19803;DHT22;66074;50.764;6.090;2024-03-22T06:50:23;13.50;95.30
19803;DHT22;66074;50.764;6.090;2024-03-22T06:52:51;13.50;95.40
19803;DHT22;66074;50.764;6.090;2024-03-22T06:55:19;13.50;95.40
19803;DHT22;66074;50.764;6.090;2024-03-22T06:57:46;13.50;95.50
19803;DHT22;66074;50.764;6.090;2024-03-22T07:00:13;13.60;95.70
19803;DHT22;66074;50.764;6.090;2024-03-22T07:02:39;13.60;95.60
19803;DHT22;66074;50.764;6.090;2024-03-22T07:05:06;13.60;95.60
19803;DHT22;66074;50.764;6.090;2024-03-22T07:07:32;13.60;95.50
19803;DHT22;66074;50.764;6.090;2024-03-22T07:09:58;13.70;95.60
19803;DHT22;66074;50.764;6.090;2024-03-22T07:12:24;13.60;95.60
19803;DHT22;66074;50.764;6.090;2024-03-22T07:14:50;13.60;95.60
19803;DHT22;66074;50.764;6.090;2024-03-22T07:17:15;13.60;95.60
19803;DHT22;66074;50.764;6.090;2024-03-22T07:19:41;13.60;95.60
19803;DHT22;66074;50.764;6.090;2024-03-22T07:22:08;13.60;95.70
19803;DHT22;66074;50.764;6.090;2024-03-22T07:24:33;13.60;95.80
19803;DHT22;66074;50.764;6.090;2024-03-22T07:26:59;13.60;95.80
19803;DHT22;66074;50.764;6.090;2024-03-22T07:29:24;13.70;95.80
19803;DHT22;66074;50.764;6.090;2024-03-22T07:31:50;13.70;95.80
19803;DHT22;66074;50.764;6.090;2024-03-22T07:34:16;13.80;95.80
19803;DHT22;66074;50.764;6.090;2024-03-22T07:36:41;13.80;95.80
19803;DHT22;66074;50.764;6.090;2024-03-22T07:39:07;13.80;95.80
19803;DHT22;66074;50.764;6.090;2024-03-22T07:41:33;13.90;95.90
19803;DHT22;66074;50.764;6.090;2024-03-22T07:43:59;13.90;95.80
19803;DHT22;66074;50.764;6.090;2024-03-22T07:46:25;13.90;95.70
19803;DHT22;66074;50.764;6.090;2024-03-22T07:48:51;13.90;95.80
19803;DHT22;66074;50.764;6.090;2024-03-22T07:51:17;13.80;95.70
19803;DHT22;66074;50.764;6.090;2024-03-22T07:53:43;13.90;95.70
19803;DHT22;66074;50.764;6.090;2024-03-22T07:56:09;14.00;95.70
19803;DHT22;66074;50.764;6.090;2024-03-22T07:58:34;14.00;95.80
19803;DHT22;66074;50.764;6.090;2024-03-22T08:01:00;14.00;95.70
19803;DHT22;66074;50.764;6.090;2024-03-22T08:03:25;14.00;95.70
19803;DHT22;66074;50.764;6.090;2024-03-22T08:05:51;14.10;95.50
19803;DHT22;66074;50.764;6.090;2024-03-22T08:08:17;14.10;95.70
19803;DHT22;66074;50.764;6.090;2024-03-22T08:10:43;14.20;95.70
19803;DHT22;66074;50.764;6.090;2024-03-22T08:13:09;14.10;95.70
19803;DHT22;66074;50.764;6.090;2024-03-22T08:15:35;14.20;95.70
19803;DHT22;66074;50.764;6.090;2024-03-22T08:18:01;14.20;95.70
19803;DHT22;66074;50.764;6.090;2024-03-22T08:20:28;14.30;95.70
19803;DHT22;66074;50.764;6.090;2024-03-22T08:22:54;14.30;95.70
19803;DHT22;66074;50.764;6.090;2024-03-22T08:25:20;14.30;95.60
19803;DHT22;66074;50.764;6.090;2024-03-22T08:27:46;14.40;95.60
19803;DHT22;66074;50.764;6.090;2024-03-22T08:30:12;14.40;95.50
19803;DHT22;66074;50.764;6.090;2024-03-22T08:32:38;14.40;95.50
19803;DHT22;66074;50.764;6.090;2024-03-22T08:35:04;14.50;95.50
19803;DHT22;66074;50.764;6.090;2024-03-22T08:37:33;14.50;95.30
19803;DHT22;66074;50.764;6.090;2024-03-22T08:39:59;14.50;95.20
19803;DHT22;66074;50.764;6.090;2024-03-22T08:42:25;14.60;95.40
19803;DHT22;66074;50.764;6.090;2024-03-22T08:44:50;14.60;95.20
19803;DHT22;66074;50.764;6.090;2024-03-22T08:47:16;14.60;95.20
19803;DHT22;66074;50.764;6.090;2024-03-22T08:49:42;14.60;95.20
19803;DHT22;66074;50.764;6.090;2024-03-22T08:52:09;14.60;95.10
19803;DHT22;66074;50.764;6.090;2024-03-22T08:54:35;14.60;95.20
19803;DHT22;66074;50.764;6.090;2024-03-22T08:57:01;14.70;95.10
19803;DHT22;66074;50.764;6.090;2024-03-22T08:59:27;14.70;95.60
19803;DHT22;66074;50.764;6.090;2024-03-22T09:01:52;14.70;95.20
19803;DHT22;66074;50.764;6.090;2024-03-22T09:04:18;14.70;95.20
19803;DHT22;66074;50.764;6.090;2024-03-22T09:06:44;14.80;94.80
19803;DHT22;66074;50.764;6.090;2024-03-22T09:09:10;14.80;95.10
19803;DHT22;66074;50.764;6.090;2024-03-22T09:11:36;14.80;95.00
19803;DHT22;66074;50.764;6.090;2024-03-22T09:14:02;14.90;95.20
19803;DHT22;66074;50.764;6.090;2024-03-22T09:16:28;15.00;95.30
19803;DHT22;66074;50.764;6.090;2024-03-22T09:18:53;15.10;95.20
19803;DHT22;66074;50.764;6.090;2024-03-22T09:21:19;15.10;94.90
19803;DHT22;66074;50.764;6.090;2024-03-22T09:23:45;15.20;95.00
19803;DHT22;66074;50.764;6.090;2024-03-22T09:26:10;15.20;95.00
19803;DHT22;66074;50.764;6.090;2024-03-22T09:28:36;15.20;94.60
19803;DHT22;66074;50.764;6.090;2024-03-22T09:31:08;15.30;94.90
19803;DHT22;66074;50.764;6.090;2024-03-22T09:33:34;15.30;94.70
19803;DHT22;66074;50.764;6.090;2024-03-22T09:36:00;15.30;94.60
19803;DHT22;66074;50.764;6.090;2024-03-22T09:38:26;15.40;94.80
19803;DHT22;66074;50.764;6.090;2024-03-22T09:40:51;15.40;94.70
19803;DHT22;66074;50.764;6.090;2024-03-22T09:43:23;15.40;94.60
19803;DHT22;66074;50.764;6.090;2024-03-22T09:45:52;15.40;94.50
19803;DHT22;66074;50.764;6.090;2024-03-22T09:48:18;15.40;94.50
19803;DHT22;66074;50.764;6.090;2024-03-22T09:50:46;15.40;94.30
19803;DHT22;66074;50.764;6.090;2024-03-22T09:53:13;15.50;94.50
19803;DHT22;66074;50.764;6.090;2024-03-22T09:55:45;15.50;94.50
19803;DHT22;66074;50.764;6.090;2024-03-22T09:58:11;15.50;94.40
19803;DHT22;66074;50.764;6.090;2024-03-22T10:00:36;15.50;94.40
19803;DHT22;66074;50.764;6.090;2024-03-22T10:03:04;15.50;94.30
19803;DHT22;66074;50.764;6.090;2024-03-22T10:05:30;15.50;94.30
19803;DHT22;66074;50.764;6.090;2024-03-22T10:07:56;15.50;94.10
19803;DHT22;66074;50.764;6.090;2024-03-22T10:10:21;15.50;94.30
19803;DHT22;66074;50.764;6.090;2024-03-22T10:12:48;15.50;94.20
19803;DHT22;66074;50.764;6.090;2024-03-22T10:15:14;15.50;94.00
19803;DHT22;66074;50.764;6.090;2024-03-22T10:17:40;15.50;93.90
19803;DHT22;66074;50.764;6.090;2024-03-22T10:20:06;15.50;94.00
19803;DHT22;66074;50.764;6.090;2024-03-22T10:22:41;15.60;93.80
19803;DHT22;66074;50.764;6.090;2024-03-22T10:25:07;15.60;93.90
19803;DHT22;66074;50.764;6.090;2024-03-22T10:27:32;15.50;93.70
19803;DHT22;66074;50.764;6.090;2024-03-22T10:29:58;15.60;94.00
19803;DHT22;66074;50.764;6.090;2024-03-22T10:32:24;15.60;94.00
19803;DHT22;66074;50.764;6.090;2024-03-22T10:34:50;15.70;93.70
19803;DHT22;66074;50.764;6.090;2024-03-22T10:37:16;15.70;94.00
19803;DHT22;66074;50.764;6.090;2024-03-22T10:39:43;15.70;93.70
19803;DHT22;66074;50.764;6.090;2024-03-22T10:42:11;15.70;93.50
19803;DHT22;66074;50.764;6.090;2024-03-22T10:44:38;15.70;93.60
19803;DHT22;66074;50.764;6.090;2024-03-22T10:47:04;15.70;93.80
19803;DHT22;66074;50.764;6.090;2024-03-22T10:49:37;15.80;93.60
19803;DHT22;66074;50.764;6.090;2024-03-22T10:52:03;15.70;93.60
19803;DHT22;66074;50.764;6.090;2024-03-22T10:54:36;15.80;93.50
19803;DHT22;66074;50.764;6.090;2024-03-22T10:57:04;15.90;93.60
19803;DHT22;66074;50.764;6.090;2024-03-22T10:59:34;15.90;93.40
19803;DHT22;66074;50.764;6.090;2024-03-22T11:02:04;16.10;93.40
19803;DHT22;66074;50.764;6.090;2024-03-22T11:04:30;16.00;93.30
19803;DHT22;66074;50.764;6.090;2024-03-22T11:06:57;16.00;93.10
19803;DHT22;66074;50.764;6.090;2024-03-22T11:09:26;16.00;93.40
19803;DHT22;66074;50.764;6.090;2024-03-22T11:11:53;15.90;92.70
19803;DHT22;66074;50.764;6.090;2024-03-22T11:14:19;15.90;92.90
19803;DHT22;66074;50.764;6.090;2024-03-22T11:16:51;16.00;92.80
19803;DHT22;66074;50.764;6.090;2024-03-22T11:19:18;16.00;92.70
19803;DHT22;66074;50.764;6.090;2024-03-22T11:21:43;15.90;92.30
19803;DHT22;66074;50.764;6.090;2024-03-22T11:24:09;15.90;91.80
19803;DHT22;66074;50.764;6.090;2024-03-22T11:26:36;15.80;92.20
19803;DHT22;66074;50.764;6.090;2024-03-22T11:29:02;15.80;91.90
19803;DHT22;66074;50.764;6.090;2024-03-22T11:31:28;15.80;91.70
19803;DHT22;66074;50.764;6.090;2024-03-22T11:33:54;15.80;91.90
19803;DHT22;66074;50.764;6.090;2024-03-22T11:36:20;15.80;91.90
19803;DHT22;66074;50.764;6.090;2024-03-22T11:38:46;15.70;91.20
19803;DHT22;66074;50.764;6.090;2024-03-22T11:41:14;15.70;92.00
19803;DHT22;66074;50.764;6.090;2024-03-22T11:43:42;15.70;91.80
19803;DHT22;66074;50.764;6.090;2024-03-22T11:46:08;15.70;91.90
19803;DHT22;66074;50.764;6.090;2024-03-22T11:48:39;15.70;91.90
19803;DHT22;66074;50.764;6.090;2024-03-22T11:51:06;15.70;91.90
19803;DHT22;66074;50.764;6.090;2024-03-22T11:53:32;15.80;91.90
19803;DHT22;66074;50.764;6.090;2024-03-22T11:55:57;15.80;91.80
19803;DHT22;66074;50.764;6.090;2024-03-22T11:58:26;15.80;91.80
19803;DHT22;66074;50.764;6.090;2024-03-22T12:00:52;15.90;92.10
19803;DHT22;66074;50.764;6.090;2024-03-22T12:03:18;16.00;92.20
19803;DHT22;66074;50.764;6.090;2024-03-22T12:05:43;16.00;92.00
19803;DHT22;66074;50.764;6.090;2024-03-22T12:08:10;16.00;91.70
19803;DHT22;66074;50.764;6.090;2024-03-22T12:10:36;16.00;91.90
19803;DHT22;66074;50.764;6.090;2024-03-22T12:13:01;16.00;91.40
19803;DHT22;66074;50.764;6.090;2024-03-22T12:15:28;16.00;91.60
19803;DHT22;66074;50.764;6.090;2024-03-22T12:17:53;16.10;91.40
19803;DHT22;66074;50.764;6.090;2024-03-22T12:20:19;16.30;91.30
19803;DHT22;66074;50.764;6.090;2024-03-22T12:22:44;16.30;91.30
19803;DHT22;66074;50.764;6.090;2024-03-22T12:25:10;16.40;91.50
19803;DHT22;66074;50.764;6.090;2024-03-22T12:27:37;16.50;91.50
19803;DHT22;66074;50.764;6.090;2024-03-22T12:30:02;16.70;91.40
19803;DHT22;66074;50.764;6.090;2024-03-22T12:32:28;16.60;91.10
19803;DHT22;66074;50.764;6.090;2024-03-22T12:34:54;16.70;91.30
19803;DHT22;66074;50.764;6.090;2024-03-22T12:37:20;16.70;91.60
19803;DHT22;66074;50.764;6.090;2024-03-22T12:39:45;16.90;91.30
19803;DHT22;66074;50.764;6.090;2024-03-22T12:42:12;17.00;91.40
19803;DHT22;66074;50.764;6.090;2024-03-22T12:44:38;17.10;90.50
19803;DHT22;66074;50.764;6.090;2024-03-22T12:47:04;17.00;90.50
19803;DHT22;66074;50.764;6.090;2024-03-22T12:49:29;17.00;90.20
19803;DHT22;66074;50.764;6.090;2024-03-22T12:51:55;17.00;89.30
19803;DHT22;66074;50.764;6.090;2024-03-22T12:54:22;17.00;88.50
19803;DHT22;66074;50.764;6.090;2024-03-22T12:56:47;17.00;89.30
19803;DHT22;66074;50.764;6.090;2024-03-22T12:59:13;17.00;89.00
19803;DHT22;66074;50.764;6.090;2024-03-22T13:01:39;17.10;89.20
19803;DHT22;66074;50.764;6.090;2024-03-22T13:04:04;17.20;86.20
19803;DHT22;66074;50.764;6.090;2024-03-22T13:06:30;17.30;86.80
19803;DHT22;66074;50.764;6.090;2024-03-22T13:08:56;17.40;89.40
19803;DHT22;66074;50.764;6.090;2024-03-22T13:11:22;17.50;88.50
19803;DHT22;66074;50.764;6.090;2024-03-22T13:13:48;17.50;89.40
19803;DHT22;66074;50.764;6.090;2024-03-22T13:16:13;17.50;88.70
19803;DHT22;66074;50.764;6.090;2024-03-22T13:18:41;17.70;88.20
19803;DHT22;66074;50.764;6.090;2024-03-22T13:21:07;17.80;87.50
19803;DHT22;66074;50.764;6.090;2024-03-22T13:23:32;18.20;88.30
19803;DHT22;66074;50.764;6.090;2024-03-22T13:26:03;18.80;87.30
19803;DHT22;66074;50.764;6.090;2024-03-22T13:28:29;19.80;86.20
19803;DHT22;66074;50.764;6.090;2024-03-22T13:31:05;22.10;81.90
19803;DHT22;66074;50.764;6.090;2024-03-22T13:33:34;23.20;77.90
19803;DHT22;66074;50.764;6.090;2024-03-22T13:36:00;22.70;79.60
19803;DHT22;66074;50.764;6.090;2024-03-22T13:38:25;23.60;82.50
19803;DHT22;66074;50.764;6.090;2024-03-22T13:40:55;23.30;80.70
19803;DHT22;66074;50.764;6.090;2024-03-22T13:43:22;22.40;78.80
19803;DHT22;66074;50.764;6.090;2024-03-22T13:45:51;22.30;77.70
19803;DHT22;66074;50.764;6.090;2024-03-22T13:48:20;21.70;79.40
19803;DHT22;66074;50.764;6.090;2024-03-22T13:50:49;21.00;83.30
19803;DHT22;66074;50.764;6.090;2024-03-22T13:53:15;20.60;83.80
19803;DHT22;66074;50.764;6.090;2024-03-22T13:55:42;20.10;84.40
19803;DHT22;66074;50.764;6.090;2024-03-22T13:58:08;19.80;85.50
19803;DHT22;66074;50.764;6.090;2024-03-22T14:00:33;19.60;84.60
19803;DHT22;66074;50.764;6.090;2024-03-22T14:02:59;19.30;85.70
19803;DHT22;66074;50.764;6.090;2024-03-22T14:05:25;19.00;85.70
19803;DHT22;66074;50.764;6.090;2024-03-22T14:07:52;19.30;87.70
19803;DHT22;66074;50.764;6.090;2024-03-22T14:10:17;20.20;86.50
19803;DHT22;66074;50.764;6.090;2024-03-22T14:12:45;20.20;84.90
19803;DHT22;66074;50.764;6.090;2024-03-22T14:15:11;19.90;86.40
19803;DHT22;66074;50.764;6.090;2024-03-22T14:17:37;19.70;86.40
19803;DHT22;66074;50.764;6.090;2024-03-22T14:20:03;19.50;87.40
19803;DHT22;66074;50.764;6.090;2024-03-22T14:22:35;19.40;88.00
19803;DHT22;66074;50.764;6.090;2024-03-22T14:25:02;19.50;87.50
19803;DHT22;66074;50.764;6.090;2024-03-22T14:27:29;19.70;86.80
19803;DHT22;66074;50.764;6.090;2024-03-22T14:29:54;19.90;87.60
19803;DHT22;66074;50.764;6.090;2024-03-22T14:32:20;20.00;87.10
19803;DHT22;66074;50.764;6.090;2024-03-22T14:34:46;20.00;87.70
19803;DHT22;66074;50.764;6.090;2024-03-22T14:37:11;19.90;87.00
19803;DHT22;66074;50.764;6.090;2024-03-22T14:39:37;19.80;87.20
19803;DHT22;66074;50.764;6.090;2024-03-22T14:42:03;19.60;86.50
19803;DHT22;66074;50.764;6.090;2024-03-22T14:44:30;19.60;87.20
19803;DHT22;66074;50.764;6.090;2024-03-22T14:46:56;19.50;87.50
19803;DHT22;66074;50.764;6.090;2024-03-22T14:49:24;19.30;87.60
19803;DHT22;66074;50.764;6.090;2024-03-22T14:51:50;19.10;87.50
19803;DHT22;66074;50.764;6.090;2024-03-22T14:54:16;19.00;87.70
19803;DHT22;66074;50.764;6.090;2024-03-22T14:56:42;18.80;88.10
19803;DHT22;66074;50.764;6.090;2024-03-22T14:59:07;18.60;88.60
19803;DHT22;66074;50.764;6.090;2024-03-22T15:01:33;18.50;88.50
19803;DHT22;66074;50.764;6.090;2024-03-22T15:04:00;18.50;88.40
19803;DHT22;66074;50.764;6.090;2024-03-22T15:06:26;18.40;88.80
19803;DHT22;66074;50.764;6.090;2024-03-22T15:08:54;18.30;89.00
19803;DHT22;66074;50.764;6.090;2024-03-22T15:11:20;18.20;89.00
19803;DHT22;66074;50.764;6.090;2024-03-22T15:13:46;18.20;89.10
19803;DHT22;66074;50.764;6.090;2024-03-22T15:16:11;18.20;89.10
19803;DHT22;66074;50.764;6.090;2024-03-22T15:18:37;18.10;89.10
19803;DHT22;66074;50.764;6.090;2024-03-22T15:21:03;17.90;90.10
19803;DHT22;66074;50.764;6.090;2024-03-22T15:23:29;17.80;90.00